Private Wetterstation Wechselburg
Wetterdaten: Samstag, 08.06.2013
Datum Zeit Temp. +2m Bodentemp. Temp.+5cm Temp. Wind Windchill X Diff Temp. Feuchte +2m Feuchte +5cm Sonnenschein Luftdruck Regen Wind Richtung Richtung Sonnenschein UV Taupunkt Windchill Windben
08.06.2013 00:00 14,5 C 22,7 C 15,2 C 14,5 C 14,5 C 0,0 C 88 % 84 % 0 % 1016,9 hPa 0,0 l/m 0,0 km/h (0 Bft) W-SW 247 0 min 0,0 UV-I 12,5 C 14,5 C 0,0 km/h (0 Bft)
08.06.2013 00:05 14,4 C 22,7 C 15,2 C 14,5 C 14,5 C 0,1 C 88 % 84 % 0 % 1016,9 hPa 0,0 l/m 0,0 km/h (0 Bft) SO 135 0 min 0,0 UV-I 12,4 C 14,5 C 0,0 km/h (0 Bft)
08.06.2013 00:10 14,3 C 22,7 C 15,2 C 14,5 C 14,5 C 0,2 C 88 % 84 % 0 % 1016,9 hPa 0,0 l/m 0,0 km/h (0 Bft) O-SO 112 0 min 0,0 UV-I 12,3 C 14,5 C 0,0 km/h (0 Bft)
08.06.2013 00:15 14,2 C 22,7 C 15,1 C 14,4 C 14,4 C 0,2 C 88 % 85 % 0 % 1017,0 hPa 0,0 l/m 0,0 km/h (0 Bft) O-NO 67 0 min 0,0 UV-I 12,2 C 14,4 C 0,0 km/h (0 Bft)
08.06.2013 00:20 14,2 C 22,7 C 15,0 C 14,5 C 14,5 C 0,3 C 89 % 85 % 0 % 1017,0 hPa 0,0 l/m 0,0 km/h (0 Bft) O-NO 67 0 min 0,0 UV-I 12,4 C 14,5 C 0,0 km/h (0 Bft)
08.06.2013 00:25 14,1 C 22,7 C 14,9 C 14,5 C 14,5 C 0,4 C 89 % 85 % 0 % 1017,0 hPa 0,0 l/m 0,0 km/h (0 Bft) O 90 0 min 0,0 UV-I 12,3 C 14,5 C 0,0 km/h (0 Bft)
08.06.2013 00:30 14,0 C 22,7 C 14,9 C 14,4 C 14,4 C 0,4 C 89 % 85 % 0 % 1017,0 hPa 0,0 l/m 0,0 km/h (0 Bft) N-NO 22 0 min 0,0 UV-I 12,2 C 14,4 C 0,0 km/h (0 Bft)
08.06.2013 00:35 14,1 C 22,7 C 14,9 C 14,3 C 14,3 C 0,2 C 89 % 85 % 0 % 1016,8 hPa 0,0 l/m 0,0 km/h (0 Bft) W-SW 247 0 min 0,0 UV-I 12,3 C 14,3 C 0,0 km/h (0 Bft)
08.06.2013 00:41 13,8 C 22,7 C 14,7 C 14,1 C 14,1 C 0,3 C 89 % 85 % 0 % 1016,8 hPa 0,0 l/m 0,0 km/h (0 Bft) N 0 0 min 0,0 UV-I 12,0 C 14,1 C 0,0 km/h (0 Bft)
08.06.2013 00:57 13,6 C 22,6 C 14,4 C 13,8 C 13,8 C 0,2 C 89 % 85 % 0 % 1017,0 hPa 0,0 l/m 0,0 km/h (0 Bft) S 180 0 min 0,0 UV-I 11,8 C 13,8 C 0,0 km/h (0 Bft)
08.06.2013 01:00 13,4 C 22,6 C 14,3 C 13,8 C 13,8 C 0,4 C 88 % 85 % 0 % 1017,0 hPa 0,0 l/m 0,0 km/h (0 Bft) O-NO 67 0 min 0,0 UV-I 11,5 C 13,8 C 0,0 km/h (0 Bft)
08.06.2013 01:05 13,5 C 22,6 C 14,4 C 13,7 C 13,7 C 0,2 C 89 % 85 % 0 % 1017,0 hPa 0,0 l/m 0,0 km/h (0 Bft) O-NO 67 0 min 0,0 UV-I 11,7 C 13,7 C 0,0 km/h (0 Bft)
08.06.2013 01:10 13,3 C 22,6 C 14,3 C 13,6 C 13,6 C 0,3 C 89 % 85 % 0 % 1017,0 hPa 0,0 l/m 0,0 km/h (0 Bft) O 90 0 min 0,0 UV-I 11,5 C 13,6 C 0,0 km/h (0 Bft)
08.06.2013 01:15 13,2 C 22,6 C 14,2 C 13,5 C 13,5 C 0,3 C 89 % 85 % 0 % 1016,9 hPa 0,0 l/m 0,0 km/h (0 Bft) W-SW 247 0 min 0,0 UV-I 11,4 C 13,5 C 0,0 km/h (0 Bft)
08.06.2013 01:20 13,1 C 22,6 C 14,1 C 13,4 C 13,4 C 0,3 C 89 % 85 % 0 % 1016,9 hPa 0,0 l/m 0,0 km/h (0 Bft) W-SW 247 0 min 0,0 UV-I 11,3 C 13,4 C 0,0 km/h (0 Bft)
08.06.2013 01:25 13,1 C 22,7 C 14,1 C 13,4 C 13,4 C 0,3 C 89 % 85 % 0 % 1016,9 hPa 0,0 l/m 0,0 km/h (0 Bft) NW 315 0 min 0,0 UV-I 11,3 C 13,4 C 0,0 km/h (0 Bft)
08.06.2013 01:30 13,1 C 22,7 C 14,0 C 13,4 C 13,4 C 0,3 C 89 % 85 % 0 % 1016,9 hPa 0,0 l/m 0,0 km/h (0 Bft) W-NW 292 0 min 0,0 UV-I 11,3 C 13,4 C 0,0 km/h (0 Bft)
08.06.2013 01:35 12,9 C 22,6 C 14,0 C 13,2 C 13,2 C 0,3 C 89 % 85 % 0 % 1016,6 hPa 0,0 l/m 0,0 km/h (0 Bft) NW 315 0 min 0,0 UV-I 11,1 C 13,2 C 0,0 km/h (0 Bft)
08.06.2013 01:40 12,9 C 22,6 C 13,9 C 13,2 C 13,2 C 0,3 C 89 % 85 % 0 % 1016,6 hPa 0,0 l/m 0,0 km/h (0 Bft) NW 315 0 min 0,0 UV-I 11,1 C 13,2 C 0,0 km/h (0 Bft)
08.06.2013 01:45 12,9 C 22,6 C 13,9 C 13,3 C 13,3 C 0,4 C 89 % 85 % 0 % 1016,6 hPa 0,0 l/m 0,0 km/h (0 Bft) NW 315 0 min 0,0 UV-I 11,1 C 13,3 C 0,0 km/h (0 Bft)
08.06.2013 01:50 12,8 C 22,6 C 14,0 C 13,2 C 13,2 C 0,4 C 89 % 85 % 0 % 1016,6 hPa 0,0 l/m 0,0 km/h (0 Bft) W 270 0 min 0,0 UV-I 11,0 C 13,2 C 0,0 km/h (0 Bft)
08.06.2013 01:55 12,8 C 22,6 C 14,1 C 13,2 C 13,2 C 0,4 C 89 % 85 % 0 % 1016,6 hPa 0,0 l/m 0,0 km/h (0 Bft) W-SW 247 0 min 0,0 UV-I 11,0 C 13,2 C 0,0 km/h (0 Bft)
08.06.2013 02:00 12,7 C 22,6 C 13,8 C 13,1 C 13,1 C 0,4 C 89 % 85 % 0 % 1016,6 hPa 0,0 l/m 0,0 km/h (0 Bft) W 270 0 min 0,0 UV-I 10,9 C 13,1 C 0,0 km/h (0 Bft)
08.06.2013 02:05 12,7 C 22,6 C 13,9 C 13,1 C 13,1 C 0,4 C 89 % 85 % 0 % 1016,6 hPa 0,0 l/m 0,0 km/h (0 Bft) SW 225 0 min 0,0 UV-I 10,9 C 13,1 C 0,0 km/h (0 Bft)
08.06.2013 02:10 12,6 C 22,6 C 13,7 C 13,0 C 13,0 C 0,4 C 89 % 85 % 0 % 1016,6 hPa 0,0 l/m 0,0 km/h (0 Bft) SW 225 0 min 0,0 UV-I 10,8 C 13,0 C 0,0 km/h (0 Bft)
08.06.2013 02:15 12,5 C 22,6 C 13,6 C 12,9 C 12,9 C 0,4 C 89 % 85 % 0 % 1016,6 hPa 0,0 l/m 0,0 km/h (0 Bft) SW 225 0 min 0,0 UV-I 10,7 C 12,9 C 0,0 km/h (0 Bft)
08.06.2013 02:20 12,4 C 22,5 C 13,7 C 12,8 C 12,8 C 0,4 C 89 % 85 % 0 % 1016,6 hPa 0,0 l/m 0,0 km/h (0 Bft) SW 225 0 min 0,0 UV-I 10,6 C 12,8 C 0,0 km/h (0 Bft)
08.06.2013 02:25 12,4 C 22,5 C 13,6 C 12,8 C 12,8 C 0,4 C 89 % 85 % 0 % 1016,6 hPa 0,0 l/m 0,0 km/h (0 Bft) W-SW 247 0 min 0,0 UV-I 10,6 C 12,8 C 0,0 km/h (0 Bft)
08.06.2013 02:30 12,3 C 22,5 C 13,5 C 12,6 C 12,6 C 0,3 C 89 % 86 % 0 % 1016,6 hPa 0,0 l/m 0,0 km/h (0 Bft) W 270 0 min 0,0 UV-I 10,5 C 12,6 C 0,0 km/h (0 Bft)
08.06.2013 02:35 12,3 C 22,5 C 13,5 C 12,6 C 12,6 C 0,3 C 90 % 86 % 0 % 1016,5 hPa 0,0 l/m 0,0 km/h (0 Bft) W-SW 247 0 min 0,0 UV-I 10,7 C 12,6 C 0,0 km/h (0 Bft)
08.06.2013 02:40 12,1 C 22,5 C 13,5 C 12,6 C 12,6 C 0,5 C 90 % 86 % 0 % 1016,5 hPa 0,0 l/m 0,0 km/h (0 Bft) W-SW 247 0 min 0,0 UV-I 10,5 C 12,6 C 0,0 km/h (0 Bft)
08.06.2013 02:45 12,1 C 22,5 C 13,5 C 12,6 C 12,6 C 0,5 C 90 % 86 % 0 % 1016,5 hPa 0,0 l/m 0,0 km/h (0 Bft) SW 225 0 min 0,0 UV-I 10,5 C 12,6 C 0,0 km/h (0 Bft)
08.06.2013 02:50 12,0 C 22,5 C 13,3 C 12,5 C 12,5 C 0,5 C 90 % 85 % 0 % 1016,5 hPa 0,0 l/m 0,0 km/h (0 Bft) S-SW 202 0 min 0,0 UV-I 10,4 C 12,5 C 0,0 km/h (0 Bft)
08.06.2013 02:55 12,1 C 22,5 C 13,3 C 12,5 C 12,5 C 0,4 C 90 % 85 % 0 % 1016,4 hPa 0,0 l/m 0,0 km/h (0 Bft) O-NO 67 0 min 0,0 UV-I 10,5 C 12,5 C 0,0 km/h (0 Bft)
08.06.2013 03:00 12,0 C 22,4 C 13,2 C 12,5 C 12,5 C 0,5 C 90 % 85 % 0 % 1016,4 hPa 0,0 l/m 0,0 km/h (0 Bft) O-NO 67 0 min 0,0 UV-I 10,4 C 12,5 C 0,0 km/h (0 Bft)
08.06.2013 03:05 12,0 C 22,4 C 13,2 C 12,5 C 12,5 C 0,5 C 90 % 85 % 0 % 1016,4 hPa 0,0 l/m 0,0 km/h (0 Bft) O-NO 67 0 min 0,0 UV-I 10,4 C 12,5 C 0,0 km/h (0 Bft)
08.06.2013 03:10 12,0 C 22,4 C 13,3 C 12,4 C 12,4 C 0,4 C 90 % 86 % 0 % 1016,4 hPa 0,0 l/m 0,0 km/h (0 Bft) O-NO 67 0 min 0,0 UV-I 10,4 C 12,4 C 0,0 km/h (0 Bft)
08.06.2013 03:15 11,9 C 22,4 C 13,2 C 12,4 C 12,4 C 0,5 C 90 % 86 % 0 % 1016,2 hPa 0,0 l/m 0,0 km/h (0 Bft) W-SW 247 0 min 0,0 UV-I 10,3 C 12,4 C 0,0 km/h (0 Bft)
08.06.2013 03:20 11,9 C 22,4 C 13,3 C 12,5 C 12,5 C 0,6 C 90 % 86 % 0 % 1016,2 hPa 0,0 l/m 0,0 km/h (0 Bft) W-SW 247 0 min 0,0 UV-I 10,3 C 12,5 C 0,0 km/h (0 Bft)
08.06.2013 03:25 11,9 C 22,4 C 13,3 C 12,5 C 12,5 C 0,6 C 90 % 86 % 0 % 1016,2 hPa 0,0 l/m 0,0 km/h (0 Bft) W-SW 247 0 min 0,0 UV-I 10,3 C 12,5 C 0,0 km/h (0 Bft)
08.06.2013 03:30 11,9 C 22,4 C 13,2 C 12,5 C 12,5 C 0,6 C 90 % 86 % 0 % 1016,2 hPa 0,0 l/m 0,0 km/h (0 Bft) NW 315 0 min 0,0 UV-I 10,3 C 12,5 C 0,0 km/h (0 Bft)
08.06.2013 03:35 11,8 C 22,4 C 13,1 C 12,5 C 12,5 C 0,7 C 90 % 86 % 0 % 1016,1 hPa 0,0 l/m 0,0 km/h (0 Bft) W 270 0 min 0,0 UV-I 10,2 C 12,5 C 0,0 km/h (0 Bft)
08.06.2013 03:40 11,9 C 22,4 C 13,1 C 12,6 C 12,6 C 0,7 C 90 % 86 % 0 % 1016,1 hPa 0,0 l/m 0,0 km/h (0 Bft) SW 225 0 min 0,0 UV-I 10,3 C 12,6 C 0,0 km/h (0 Bft)
08.06.2013 03:45 11,9 C 22,4 C 13,2 C 12,6 C 12,6 C 0,7 C 90 % 86 % 0 % 1016,1 hPa 0,0 l/m 0,0 km/h (0 Bft) SO 135 0 min 0,0 UV-I 10,3 C 12,6 C 0,0 km/h (0 Bft)
08.06.2013 03:50 11,8 C 22,4 C 13,2 C 12,6 C 12,6 C 0,8 C 90 % 86 % 0 % 1016,1 hPa 0,0 l/m 0,0 km/h (0 Bft) SW 225 0 min 0,0 UV-I 10,2 C 12,6 C 0,0 km/h (0 Bft)
08.06.2013 03:55 11,8 C 22,4 C 13,3 C 12,7 C 12,7 C 0,9 C 90 % 86 % 0 % 1016,2 hPa 0,0 l/m 0,0 km/h (0 Bft) W 270 0 min 0,0 UV-I 10,2 C 12,7 C 0,0 km/h (0 Bft)
08.06.2013 04:00 11,9 C 22,3 C 13,3 C 12,7 C 12,7 C 0,8 C 91 % 86 % 0 % 1016,2 hPa 0,0 l/m 0,0 km/h (0 Bft) NW 315 0 min 0,0 UV-I 10,5 C 12,7 C 0,0 km/h (0 Bft)
08.06.2013 04:05 12,0 C 22,3 C 13,2 C 12,7 C 12,7 C 0,7 C 91 % 86 % 0 % 1016,2 hPa 0,0 l/m 0,0 km/h (0 Bft) N-NW 337 0 min 0,0 UV-I 10,6 C 12,7 C 0,0 km/h (0 Bft)
08.06.2013 04:10 12,0 C 22,3 C 13,3 C 12,8 C 12,8 C 0,8 C 91 % 86 % 0 % 1016,2 hPa 0,0 l/m 0,0 km/h (0 Bft) W-NW 292 0 min 0,0 UV-I 10,6 C 12,8 C 0,0 km/h (0 Bft)
08.06.2013 04:15 12,0 C 22,3 C 13,2 C 12,7 C 12,7 C 0,7 C 91 % 87 % 0 % 1016,1 hPa 0,0 l/m 0,0 km/h (0 Bft) W-SW 247 0 min 0,0 UV-I 10,6 C 12,7 C 0,0 km/h (0 Bft)
08.06.2013 04:20 12,0 C 22,3 C 13,3 C 12,7 C 12,7 C 0,7 C 91 % 87 % 0 % 1016,1 hPa 0,0 l/m 0,0 km/h (0 Bft) SW 225 0 min 0,0 UV-I 10,6 C 12,7 C 0,0 km/h (0 Bft)
08.06.2013 04:25 11,9 C 22,3 C 13,2 C 12,6 C 12,6 C 0,7 C 91 % 87 % 0 % 1016,1 hPa 0,0 l/m 0,0 km/h (0 Bft) SW 225 0 min 0,0 UV-I 10,5 C 12,6 C 0,0 km/h (0 Bft)
08.06.2013 04:30 11,9 C 22,3 C 13,2 C 12,6 C 12,6 C 0,7 C 91 % 87 % 0 % 1016,1 hPa 0,0 l/m 0,0 km/h (0 Bft) SW 225 0 min 0,0 UV-I 10,5 C 12,6 C 0,0 km/h (0 Bft)
08.06.2013 04:35 11,9 C 22,3 C 13,2 C 12,6 C 12,6 C 0,7 C 91 % 87 % 0 % 1015,9 hPa 0,0 l/m 0,0 km/h (0 Bft) SW 225 0 min 0,0 UV-I 10,5 C 12,6 C 0,0 km/h (0 Bft)
08.06.2013 04:40 11,8 C 22,3 C 13,3 C 12,6 C 12,6 C 0,8 C 91 % 87 % 0 % 1015,9 hPa 0,0 l/m 0,0 km/h (0 Bft) SW 225 0 min 0,0 UV-I 10,4 C 12,6 C 0,0 km/h (0 Bft)
08.06.2013 04:45 11,9 C 22,3 C 13,2 C 12,7 C 12,7 C 0,8 C 91 % 87 % 0 % 1015,9 hPa 0,0 l/m 0,0 km/h (0 Bft) SW 225 0 min 0,0 UV-I 10,5 C 12,7 C 0,0 km/h (0 Bft)
08.06.2013 04:50 11,9 C 22,3 C 13,3 C 12,7 C 12,7 C 0,8 C 91 % 87 % 0 % 1015,9 hPa 0,0 l/m 0,0 km/h (0 Bft) W-SW 247 0 min 0,0 UV-I 10,5 C 12,7 C 0,0 km/h (0 Bft)
08.06.2013 04:55 11,9 C 22,3 C 13,2 C 12,7 C 12,7 C 0,8 C 91 % 87 % 0 % 1015,9 hPa 0,0 l/m 0,0 km/h (0 Bft) W-SW 247 0 min 0,0 UV-I 10,5 C 12,7 C 0,0 km/h (0 Bft)
08.06.2013 05:00 11,9 C 22,2 C 13,2 C 12,8 C 12,8 C 0,9 C 91 % 87 % 0 % 1015,9 hPa 0,0 l/m 0,0 km/h (0 Bft) W 270 0 min 0,0 UV-I 10,5 C 12,8 C 0,0 km/h (0 Bft)
08.06.2013 05:05 11,9 C 22,2 C 13,2 C 12,8 C 12,8 C 0,9 C 91 % 87 % 0 % 1015,9 hPa 0,0 l/m 0,0 km/h (0 Bft) NW 315 0 min 0,0 UV-I 10,5 C 12,8 C 0,0 km/h (0 Bft)
08.06.2013 05:10 12,0 C 22,2 C 13,2 C 12,8 C 12,8 C 0,8 C 91 % 87 % 21 % 1015,9 hPa 0,0 l/m 0,0 km/h (0 Bft) W-SW 247 5 min 0,0 UV-I 10,6 C 12,8 C 0,0 km/h (0 Bft)
08.06.2013 05:15 12,0 C 22,2 C 13,3 C 12,8 C 12,8 C 0,8 C 91 % 87 % 21 % 1016,1 hPa 0,0 l/m 0,0 km/h (0 Bft) S-SO 157 5 min 0,0 UV-I 10,6 C 12,8 C 0,0 km/h (0 Bft)
08.06.2013 05:20 12,0 C 22,2 C 13,2 C 12,8 C 12,8 C 0,8 C 91 % 87 % 21 % 1016,1 hPa 0,0 l/m 0,0 km/h (0 Bft) O 90 5 min 0,0 UV-I 10,6 C 12,8 C 0,0 km/h (0 Bft)
08.06.2013 05:25 12,1 C 22,2 C 13,3 C 12,9 C 12,9 C 0,8 C 91 % 87 % 21 % 1016,1 hPa 0,0 l/m 0,0 km/h (0 Bft) W 270 5 min 0,0 UV-I 10,7 C 12,9 C 0,0 km/h (0 Bft)
08.06.2013 05:30 12,0 C 22,2 C 13,3 C 13,0 C 13,0 C 1,0 C 91 % 87 % 26 % 1016,1 hPa 0,0 l/m 0,0 km/h (0 Bft) W-SW 247 5 min 0,0 UV-I 10,6 C 13,0 C 0,0 km/h (0 Bft)
08.06.2013 05:35 12,1 C 22,2 C 13,4 C 12,9 C 12,9 C 0,8 C 91 % 87 % 21 % 1016,1 hPa 0,0 l/m 0,0 km/h (0 Bft) W 270 5 min 0,0 UV-I 10,7 C 12,9 C 0,0 km/h (0 Bft)
08.06.2013 05:40 12,1 C 22,2 C 13,5 C 13,0 C 13,0 C 0,9 C 91 % 87 % 24 % 1016,1 hPa 0,0 l/m 0,0 km/h (0 Bft) W-SW 247 5 min 0,0 UV-I 10,7 C 13,0 C 0,0 km/h (0 Bft)
08.06.2013 05:45 12,1 C 22,2 C 13,5 C 13,0 C 13,0 C 0,9 C 91 % 87 % 24 % 1016,1 hPa 0,0 l/m 0,0 km/h (0 Bft) W-SW 247 0 min 0,0 UV-I 10,7 C 13,0 C 0,0 km/h (0 Bft)
08.06.2013 05:50 12,1 C 22,2 C 13,5 C 13,1 C 13,1 C 1,0 C 91 % 87 % 26 % 1016,1 hPa 0,0 l/m 0,0 km/h (0 Bft) W-SW 247 0 min 0,0 UV-I 10,7 C 13,1 C 0,0 km/h (0 Bft)
08.06.2013 05:55 12,3 C 22,2 C 13,5 C 13,1 C 13,1 C 0,8 C 91 % 87 % 21 % 1016,1 hPa 0,0 l/m 0,0 km/h (0 Bft) SW 225 0 min 0,0 UV-I 10,9 C 13,1 C 0,0 km/h (0 Bft)
08.06.2013 06:00 12,2 C 22,2 C 13,5 C 13,2 C 13,2 C 1,0 C 91 % 87 % 26 % 1016,1 hPa 0,0 l/m 0,0 km/h (0 Bft) S-SW 202 0 min 0,0 UV-I 10,8 C 13,2 C 0,0 km/h (0 Bft)
08.06.2013 06:05 12,2 C 22,2 C 13,5 C 13,2 C 13,2 C 1,0 C 91 % 87 % 26 % 1016,1 hPa 0,0 l/m 0,0 km/h (0 Bft) W-SW 247 0 min 0,0 UV-I 10,8 C 13,2 C 0,0 km/h (0 Bft)
08.06.2013 06:10 12,3 C 22,2 C 13,6 C 13,4 C 13,4 C 1,1 C 92 % 87 % 29 % 1016,1 hPa 0,0 l/m 0,0 km/h (0 Bft) W-SW 247 0 min 0,0 UV-I 11,0 C 13,4 C 0,0 km/h (0 Bft)
08.06.2013 06:15 12,4 C 22,1 C 13,7 C 13,4 C 13,4 C 1,0 C 92 % 87 % 26 % 1016,2 hPa 0,0 l/m 0,0 km/h (0 Bft) W-SW 247 0 min 0,0 UV-I 11,1 C 13,4 C 0,0 km/h (0 Bft)
08.06.2013 06:20 12,4 C 22,1 C 13,6 C 13,5 C 13,5 C 1,1 C 92 % 87 % 29 % 1016,2 hPa 0,0 l/m 0,0 km/h (0 Bft) SO 135 0 min 0,0 UV-I 11,1 C 13,5 C 0,0 km/h (0 Bft)
08.06.2013 06:25 12,5 C 22,1 C 13,7 C 13,6 C 13,6 C 1,1 C 92 % 87 % 29 % 1016,2 hPa 0,0 l/m 0,0 km/h (0 Bft) O-NO 67 0 min 0,0 UV-I 11,2 C 13,6 C 0,0 km/h (0 Bft)
08.06.2013 06:30 12,6 C 22,1 C 13,7 C 13,6 C 13,6 C 1,0 C 92 % 87 % 26 % 1016,2 hPa 0,0 l/m 0,0 km/h (0 Bft) NO 45 0 min 0,0 UV-I 11,3 C 13,6 C 0,0 km/h (0 Bft)
08.06.2013 06:35 12,7 C 22,1 C 13,8 C 13,6 C 13,6 C 0,9 C 92 % 87 % 24 % 1016,2 hPa 0,0 l/m 0,0 km/h (0 Bft) NO 45 0 min 0,0 UV-I 11,4 C 13,6 C 0,0 km/h (0 Bft)
08.06.2013 06:41 12,7 C 22,1 C 13,8 C 13,8 C 13,8 C 1,1 C 92 % 87 % 29 % 1016,2 hPa 0,0 l/m 0,0 km/h (0 Bft) N 0 0 min 0,0 UV-I 11,4 C 13,8 C 0,0 km/h (0 Bft)
08.06.2013 07:00 12,8 C 22,1 C 14,0 C 13,8 C 13,8 C 1,0 C 92 % 88 % 26 % 1016,1 hPa 0,0 l/m 0,2 km/h (0 Bft) NW 315 0 min 0,0 UV-I 11,5 C 13,8 C 0,0 km/h (0 Bft)
08.06.2013 07:05 12,8 C 22,1 C 14,0 C 13,9 C 13,9 C 1,1 C 92 % 87 % 29 % 1016,1 hPa 0,0 l/m 0,0 km/h (0 Bft) O 90 0 min 0,0 UV-I 11,5 C 13,9 C 0,0 km/h (0 Bft)
08.06.2013 07:10 12,9 C 22,1 C 14,1 C 14,0 C 14,0 C 1,1 C 92 % 87 % 29 % 1016,1 hPa 0,0 l/m 0,0 km/h (0 Bft) NW 315 0 min 0,0 UV-I 11,6 C 14,0 C 0,0 km/h (0 Bft)
08.06.2013 07:15 12,9 C 22,1 C 14,3 C 14,2 C 14,2 C 1,3 C 92 % 87 % 34 % 1016,4 hPa 0,0 l/m 0,0 km/h (0 Bft) W 270 0 min 0,0 UV-I 11,6 C 14,2 C 0,0 km/h (0 Bft)
08.06.2013 07:20 13,0 C 22,1 C 14,5 C 14,5 C 14,5 C 1,5 C 92 % 87 % 39 % 1016,4 hPa 0,0 l/m 0,0 km/h (0 Bft) W 270 0 min 0,0 UV-I 11,7 C 14,5 C 1,6 km/h (1 Bft)
08.06.2013 07:25 13,1 C 22,1 C 14,5 C 14,8 C 14,8 C 1,7 C 92 % 87 % 45 % 1016,4 hPa 0,0 l/m 0,2 km/h (0 Bft) W-SW 247 0 min 0,0 UV-I 11,8 C 14,8 C 0,0 km/h (0 Bft)
08.06.2013 07:30 13,3 C 22,1 C 14,7 C 16,1 C 16,1 C 2,8 C 92 % 87 % 74 % 1016,4 hPa 0,0 l/m 0,2 km/h (0 Bft) W-SW 247 0 min 0,0 UV-I 12,0 C 16,1 C 2,4 km/h (1 Bft)
08.06.2013 07:35 13,5 C 22,1 C 14,9 C 16,8 C 16,8 C 3,3 C 92 % 87 % 87 % 1015,9 hPa 0,0 l/m 0,0 km/h (0 Bft) W-SW 247 5 min 0,0 UV-I 12,2 C 16,8 C 0,0 km/h (0 Bft)
08.06.2013 07:40 13,7 C 22,1 C 15,1 C 19,1 C 19,1 C 5,4 C 93 % 87 % 100 % 1015,9 hPa 0,0 l/m 0,0 km/h (0 Bft) W-SW 247 5 min 0,0 UV-I 12,6 C 19,1 C 0,0 km/h (0 Bft)
08.06.2013 07:45 13,8 C 22,0 C 15,2 C 20,3 C 20,3 C 6,5 C 93 % 87 % 100 % 1015,9 hPa 0,0 l/m 0,0 km/h (0 Bft) W-SW 247 5 min 0,0 UV-I 12,7 C 20,3 C 0,0 km/h (0 Bft)
08.06.2013 07:50 14,1 C 21,9 C 15,5 C 21,3 C 21,3 C 7,2 C 93 % 87 % 100 % 1015,9 hPa 0,0 l/m 0,0 km/h (0 Bft) S 180 5 min 0,0 UV-I 13,0 C 21,3 C 0,0 km/h (0 Bft)
08.06.2013 07:55 14,3 C 21,9 C 15,6 C 20,9 C 20,9 C 6,6 C 93 % 87 % 100 % 1015,8 hPa 0,0 l/m 0,0 km/h (0 Bft) W-SW 247 5 min 0,0 UV-I 13,2 C 20,9 C 0,0 km/h (0 Bft)
08.06.2013 08:00 14,4 C 21,9 C 15,6 C 20,8 C 20,8 C 6,4 C 93 % 87 % 100 % 1015,8 hPa 0,0 l/m 0,0 km/h (0 Bft) S-SW 202 5 min 0,0 UV-I 13,3 C 20,8 C 0,0 km/h (0 Bft)
08.06.2013 08:05 14,7 C 21,9 C 15,9 C 20,8 C 20,8 C 6,1 C 93 % 87 % 100 % 1015,8 hPa 0,0 l/m 0,0 km/h (0 Bft) O-NO 67 5 min 0,0 UV-I 13,6 C 20,8 C 0,0 km/h (0 Bft)
08.06.2013 08:10 15,1 C 21,9 C 16,2 C 21,7 C 21,7 C 6,6 C 93 % 87 % 100 % 1015,8 hPa 0,0 l/m 0,2 km/h (0 Bft) N-NW 337 5 min 0,0 UV-I 14,0 C 21,7 C 0,0 km/h (0 Bft)
08.06.2013 08:15 15,5 C 21,8 C 16,4 C 22,8 C 22,8 C 7,3 C 93 % 87 % 100 % 1015,9 hPa 0,0 l/m 0,2 km/h (0 Bft) SW 225 5 min 0,0 UV-I 14,4 C 22,8 C 0,0 km/h (0 Bft)
08.06.2013 08:20 15,9 C 21,9 C 16,4 C 23,8 C 23,8 C 7,9 C 93 % 86 % 100 % 1015,9 hPa 0,0 l/m 0,3 km/h (0 Bft) SW 225 5 min 0,0 UV-I 14,8 C 23,8 C 0,0 km/h (0 Bft)
08.06.2013 08:25 16,1 C 21,9 C 16,7 C 24,6 C 24,6 C 8,5 C 93 % 86 % 100 % 1015,9 hPa 0,0 l/m 0,6 km/h (0 Bft) S-SW 202 5 min 0,0 UV-I 15,0 C 24,6 C 3,2 km/h (1 Bft)
08.06.2013 08:30 16,7 C 21,8 C 16,8 C 25,6 C 25,6 C 8,9 C 93 % 86 % 100 % 1015,9 hPa 0,0 l/m 0,8 km/h (0 Bft) SW 225 5 min 0,0 UV-I 15,6 C 25,6 C 0,0 km/h (0 Bft)
08.06.2013 08:35 16,9 C 21,8 C 16,9 C 26,3 C 26,3 C 9,4 C 92 % 86 % 100 % 1015,8 hPa 0,0 l/m 0,8 km/h (0 Bft) S-SW 202 5 min 0,0 UV-I 15,6 C 26,3 C 0,0 km/h (0 Bft)
08.06.2013 08:40 17,1 C 21,7 C 17,0 C 26,8 C 26,8 C 9,7 C 91 % 86 % 100 % 1015,8 hPa 0,0 l/m 0,6 km/h (0 Bft) W-SW 247 5 min 0,0 UV-I 15,6 C 26,8 C 1,6 km/h (1 Bft)
08.06.2013 08:45 17,1 C 21,7 C 17,1 C 26,7 C 26,7 C 9,6 C 90 % 86 % 100 % 1015,8 hPa 0,0 l/m 0,8 km/h (0 Bft) SW 225 5 min 0,0 UV-I 15,4 C 26,7 C 1,8 km/h (1 Bft)
08.06.2013 08:50 17,3 C 21,7 C 17,1 C 26,7 C 26,7 C 9,4 C 89 % 86 % 100 % 1015,8 hPa 0,0 l/m 1,0 km/h (0 Bft) S-SO 157 5 min 0,0 UV-I 15,5 C 26,7 C 0,0 km/h (0 Bft)
08.06.2013 08:55 17,5 C 21,7 C 17,2 C 26,3 C 26,3 C 8,8 C 89 % 85 % 100 % 1016,1 hPa 0,0 l/m 0,6 km/h (0 Bft) S 180 5 min 0,0 UV-I 15,7 C 26,3 C 0,0 km/h (0 Bft)
08.06.2013 09:00 17,8 C 21,7 C 17,3 C 25,4 C 25,4 C 7,6 C 88 % 85 % 100 % 1016,1 hPa 0,0 l/m 0,0 km/h (0 Bft) SW 225 5 min 0,0 UV-I 15,8 C 25,4 C 0,0 km/h (0 Bft)
08.06.2013 09:05 18,0 C 21,6 C 17,3 C 24,9 C 24,9 C 6,9 C 87 % 85 % 100 % 1016,1 hPa 0,0 l/m 0,2 km/h (0 Bft) W 270 5 min 0,0 UV-I 15,8 C 24,9 C 0,0 km/h (0 Bft)
08.06.2013 09:10 18,3 C 21,6 C 17,5 C 26,0 C 26,0 C 7,7 C 86 % 85 % 100 % 1016,1 hPa 0,0 l/m 0,3 km/h (0 Bft) W-SW 247 5 min 0,0 UV-I 15,9 C 26,0 C 3,2 km/h (1 Bft)
08.06.2013 09:15 18,5 C 21,6 C 17,6 C 26,8 C 26,8 C 8,3 C 85 % 85 % 100 % 1016,1 hPa 0,0 l/m 0,5 km/h (0 Bft) W 270 5 min 0,0 UV-I 15,9 C 26,8 C 2,6 km/h (1 Bft)
08.06.2013 09:20 18,8 C 21,6 C 17,6 C 27,2 C 27,2 C 8,4 C 84 % 85 % 100 % 1016,1 hPa 0,0 l/m 1,0 km/h (0 Bft) SW 225 5 min 0,0 UV-I 16,0 C 27,2 C 1,9 km/h (1 Bft)
08.06.2013 09:25 19,0 C 21,6 C 17,9 C 27,5 C 27,5 C 8,5 C 84 % 85 % 100 % 1016,1 hPa 0,0 l/m 1,1 km/h (1 Bft) W-SW 247 5 min 0,0 UV-I 16,2 C 27,5 C 0,0 km/h (0 Bft)
08.06.2013 09:30 19,3 C 21,6 C 17,9 C 28,0 C 28,0 C 8,7 C 83 % 85 % 100 % 1016,1 hPa 0,0 l/m 1,1 km/h (1 Bft) W-SW 247 5 min 0,0 UV-I 16,3 C 28,0 C 3,7 km/h (1 Bft)
08.06.2013 09:35 19,5 C 21,6 C 18,0 C 28,0 C 28,0 C 8,5 C 83 % 85 % 100 % 1016,2 hPa 0,0 l/m 1,1 km/h (1 Bft) W 270 5 min 0,0 UV-I 16,5 C 28,0 C 1,6 km/h (1 Bft)
08.06.2013 09:40 19,6 C 21,6 C 18,0 C 28,5 C 28,5 C 8,9 C 82 % 84 % 100 % 1016,2 hPa 0,0 l/m 0,8 km/h (0 Bft) W 270 5 min 0,0 UV-I 16,4 C 28,5 C 4,7 km/h (1 Bft)
08.06.2013 09:45 19,9 C 21,6 C 18,1 C 28,9 C 28,9 C 9,0 C 82 % 84 % 100 % 1016,2 hPa 0,0 l/m 0,5 km/h (0 Bft) NW 315 5 min 0,0 UV-I 16,7 C 28,9 C 0,0 km/h (0 Bft)
08.06.2013 09:50 20,0 C 21,6 C 18,3 C 29,2 C 29,2 C 9,2 C 81 % 84 % 100 % 1016,2 hPa 0,0 l/m 0,8 km/h (0 Bft) S 180 5 min 0,0 UV-I 16,6 C 29,2 C 0,0 km/h (0 Bft)
08.06.2013 09:55 20,1 C 21,6 C 18,5 C 29,3 C 29,3 C 9,2 C 80 % 84 % 100 % 1016,1 hPa 0,0 l/m 1,0 km/h (0 Bft) NW 315 5 min 0,0 UV-I 16,5 C 29,3 C 0,0 km/h (0 Bft)
08.06.2013 10:00 20,3 C 21,6 C 18,6 C 29,8 C 29,8 C 9,5 C 79 % 83 % 100 % 1016,1 hPa 0,0 l/m 0,8 km/h (0 Bft) NW 315 5 min 0,0 UV-I 16,5 C 29,8 C 3,2 km/h (1 Bft)
08.06.2013 10:05 20,3 C 21,6 C 18,8 C 29,3 C 29,3 C 9,0 C 79 % 83 % 100 % 1016,1 hPa 0,0 l/m 1,1 km/h (1 Bft) NW 315 5 min 0,0 UV-I 16,5 C 29,3 C 2,1 km/h (1 Bft)
08.06.2013 10:10 20,2 C 21,6 C 18,9 C 28,5 C 28,5 C 8,3 C 78 % 82 % 100 % 1016,1 hPa 0,0 l/m 1,4 km/h (1 Bft) O-SO 112 5 min 0,0 UV-I 16,2 C 28,5 C 0,0 km/h (0 Bft)
08.06.2013 10:15 20,3 C 21,6 C 19,0 C 28,0 C 28,0 C 7,7 C 78 % 82 % 100 % 1015,8 hPa 0,0 l/m 1,1 km/h (1 Bft) N-NO 22 5 min 0,0 UV-I 16,3 C 28,0 C 2,6 km/h (1 Bft)
08.06.2013 10:20 20,3 C 21,7 C 19,2 C 27,1 C 27,1 C 6,8 C 79 % 82 % 100 % 1015,8 hPa 0,0 l/m 1,6 km/h (1 Bft) O-SO 112 5 min 0,0 UV-I 16,5 C 27,1 C 1,6 km/h (1 Bft)
08.06.2013 10:25 20,4 C 21,6 C 19,4 C 26,7 C 26,7 C 6,3 C 78 % 81 % 100 % 1015,8 hPa 0,0 l/m 1,8 km/h (1 Bft) O-SO 112 5 min 0,0 UV-I 16,4 C 26,7 C 0,0 km/h (0 Bft)
08.06.2013 10:30 20,7 C 21,6 C 19,4 C 26,9 C 26,9 C 6,2 C 77 % 81 % 100 % 1015,8 hPa 0,0 l/m 1,1 km/h (1 Bft) N-NW 337 5 min 0,0 UV-I 16,5 C 26,9 C 0,0 km/h (0 Bft)
08.06.2013 10:35 20,8 C 21,6 C 19,4 C 26,6 C 26,6 C 5,8 C 76 % 81 % 100 % 1015,8 hPa 0,0 l/m 1,6 km/h (1 Bft) O-NO 67 5 min 0,0 UV-I 16,4 C 26,6 C 2,1 km/h (1 Bft)
08.06.2013 10:40 21,1 C 21,6 C 19,5 C 26,1 C 26,1 C 5,0 C 76 % 81 % 100 % 1015,8 hPa 0,0 l/m 1,8 km/h (1 Bft) N 360 5 min 0,0 UV-I 16,7 C 26,1 C 4,8 km/h (1 Bft)
08.06.2013 10:45 21,1 C 21,6 C 19,7 C 26,4 C 26,4 C 5,3 C 75 % 81 % 100 % 1015,8 hPa 0,0 l/m 1,3 km/h (1 Bft) NW 315 5 min 0,0 UV-I 16,5 C 26,4 C 1,6 km/h (1 Bft)
08.06.2013 10:50 21,3 C 21,6 C 19,7 C 26,9 C 26,9 C 5,6 C 74 % 79 % 100 % 1015,8 hPa 0,0 l/m 1,6 km/h (1 Bft) SO 135 5 min 0,0 UV-I 16,5 C 26,9 C 5,0 km/h (1 Bft)
08.06.2013 10:55 21,3 C 21,6 C 19,8 C 27,4 C 27,4 C 6,1 C 75 % 80 % 100 % 1015,4 hPa 0,0 l/m 1,6 km/h (1 Bft) NO 45 5 min 0,0 UV-I 16,7 C 27,4 C 2,7 km/h (1 Bft)
08.06.2013 11:00 21,5 C 21,5 C 19,9 C 28,0 C 28,0 C 6,5 C 74 % 80 % 100 % 1015,4 hPa 0,0 l/m 1,3 km/h (1 Bft) SO 135 5 min 0,0 UV-I 16,7 C 28,0 C 0,0 km/h (0 Bft)
08.06.2013 11:05 21,7 C 21,6 C 20,1 C 28,9 C 28,9 C 7,2 C 75 % 80 % 100 % 1015,4 hPa 0,0 l/m 1,0 km/h (0 Bft) O-NO 67 5 min 0,0 UV-I 17,1 C 28,9 C 3,1 km/h (1 Bft)
08.06.2013 11:10 22,1 C 21,5 C 20,0 C 28,6 C 28,6 C 6,5 C 73 % 76 % 100 % 1015,4 hPa 0,0 l/m 1,4 km/h (1 Bft) NO 45 5 min 0,0 UV-I 17,0 C 28,6 C 2,9 km/h (1 Bft)
08.06.2013 11:15 22,2 C 21,6 C 20,4 C 28,5 C 28,5 C 6,3 C 72 % 79 % 100 % 1015,4 hPa 0,0 l/m 1,9 km/h (1 Bft) N-NW 337 5 min 0,0 UV-I 16,9 C 28,5 C 4,2 km/h (1 Bft)
08.06.2013 11:20 22,0 C 21,6 C 20,5 C 28,3 C 28,3 C 6,3 C 73 % 77 % 100 % 1015,4 hPa 0,0 l/m 2,4 km/h (1 Bft) O-NO 67 5 min 0,0 UV-I 16,9 C 28,3 C 9,0 km/h (2 Bft)
08.06.2013 11:25 22,1 C 21,6 C 20,5 C 27,7 C 27,7 C 5,6 C 72 % 77 % 100 % 1015,4 hPa 0,0 l/m 2,6 km/h (1 Bft) O 90 5 min 0,0 UV-I 16,8 C 27,7 C 1,9 km/h (1 Bft)
08.06.2013 11:30 21,9 C 21,6 C 20,7 C 27,3 C 27,3 C 5,4 C 72 % 77 % 100 % 1015,4 hPa 0,0 l/m 3,4 km/h (1 Bft) O-NO 67 5 min 0,0 UV-I 16,6 C 27,3 C 4,3 km/h (1 Bft)
08.06.2013 11:35 22,0 C 21,6 C 20,7 C 27,3 C 27,3 C 5,3 C 72 % 74 % 100 % 1015,1 hPa 0,0 l/m 3,9 km/h (1 Bft) O-NO 67 5 min 0,0 UV-I 16,7 C 27,3 C 2,1 km/h (1 Bft)
08.06.2013 11:40 22,1 C 21,6 C 20,9 C 27,7 C 27,7 C 5,6 C 70 % 76 % 100 % 1015,1 hPa 0,0 l/m 2,7 km/h (1 Bft) N-NO 22 5 min 0,0 UV-I 16,4 C 27,7 C 2,6 km/h (1 Bft)
08.06.2013 11:45 22,2 C 21,6 C 20,9 C 28,1 C 28,1 C 5,9 C 69 % 75 % 100 % 1015,1 hPa 0,0 l/m 2,3 km/h (1 Bft) N 360 5 min 0,0 UV-I 16,2 C 28,1 C 3,9 km/h (1 Bft)
08.06.2013 11:50 22,3 C 21,6 C 20,8 C 27,8 C 27,8 C 5,5 C 69 % 75 % 100 % 1015,1 hPa 0,0 l/m 2,3 km/h (1 Bft) N-NW 337 5 min 0,0 UV-I 16,3 C 27,8 C 3,7 km/h (1 Bft)
08.06.2013 11:55 22,5 C 21,6 C 20,9 C 27,2 C 27,2 C 4,7 C 70 % 72 % 100 % 1015,2 hPa 0,0 l/m 1,6 km/h (1 Bft) O-NO 67 5 min 0,0 UV-I 16,7 C 27,2 C 0,0 km/h (0 Bft)
08.06.2013 12:00 22,7 C 21,6 C 21,2 C 28,3 C 28,3 C 5,6 C 70 % 74 % 100 % 1015,2 hPa 0,0 l/m 1,8 km/h (1 Bft) NW 315 5 min 0,0 UV-I 16,9 C 28,3 C 2,4 km/h (1 Bft)
08.06.2013 12:05 22,7 C 21,7 C 21,2 C 28,7 C 28,7 C 6,0 C 70 % 73 % 100 % 1015,2 hPa 0,0 l/m 1,9 km/h (1 Bft) S-SW 202 5 min 0,0 UV-I 16,9 C 28,7 C 2,4 km/h (1 Bft)
08.06.2013 12:10 22,9 C 21,7 C 21,3 C 28,7 C 28,7 C 5,8 C 66 % 75 % 100 % 1015,2 hPa 0,0 l/m 2,1 km/h (1 Bft) W-NW 292 5 min 0,0 UV-I 16,2 C 28,7 C 0,0 km/h (0 Bft)
08.06.2013 12:15 23,0 C 21,7 C 21,3 C 28,6 C 28,6 C 5,6 C 68 % 75 % 100 % 1015,4 hPa 0,0 l/m 1,6 km/h (1 Bft) O 90 5 min 0,0 UV-I 16,8 C 28,6 C 3,1 km/h (1 Bft)
08.06.2013 12:20 23,1 C 21,7 C 21,5 C 28,9 C 28,9 C 5,8 C 67 % 75 % 100 % 1015,4 hPa 0,0 l/m 1,8 km/h (1 Bft) NW 315 5 min 0,0 UV-I 16,6 C 28,9 C 4,8 km/h (1 Bft)
08.06.2013 12:25 23,2 C 21,7 C 21,7 C 29,5 C 29,5 C 6,3 C 66 % 76 % 100 % 1015,4 hPa 0,0 l/m 2,1 km/h (1 Bft) O-SO 112 5 min 0,0 UV-I 16,5 C 29,5 C 2,3 km/h (1 Bft)
08.06.2013 12:30 23,4 C 21,8 C 21,6 C 29,8 C 29,8 C 6,4 C 66 % 75 % 100 % 1015,4 hPa 0,0 l/m 2,3 km/h (1 Bft) W 270 5 min 0,1 UV-I 16,7 C 29,8 C 5,5 km/h (1 Bft)
08.06.2013 12:35 23,6 C 21,8 C 21,7 C 29,8 C 29,8 C 6,2 C 66 % 75 % 100 % 1014,4 hPa 0,0 l/m 2,4 km/h (1 Bft) O-NO 67 5 min 0,1 UV-I 16,9 C 29,8 C 3,7 km/h (1 Bft)
08.06.2013 12:46 24,0 C 21,8 C 22,0 C 30,0 C 30,0 C 6,0 C 65 % 73 % 100 % 1014,4 hPa 0,0 l/m 1,6 km/h (1 Bft) N 0 11 min 0,1 UV-I 17,0 C 30,0 C 1,6 km/h (1 Bft)
08.06.2013 13:00 23,7 C 21,8 C 21,5 C 27,0 C 27,0 C 3,3 C 64 % 72 % 87 % 1014,2 hPa 0,0 l/m 0,8 km/h (0 Bft) W-NW 292 14 min 0,0 UV-I 16,5 C 27,0 C 3,1 km/h (1 Bft)
08.06.2013 13:05 23,5 C 21,8 C 21,5 C 26,7 C 26,7 C 3,2 C 64 % 73 % 84 % 1014,2 hPa 0,0 l/m 0,6 km/h (0 Bft) O 90 0 min 0,0 UV-I 16,3 C 26,7 C 1,9 km/h (1 Bft)
08.06.2013 13:10 23,5 C 21,8 C 21,3 C 26,3 C 26,3 C 2,8 C 64 % 70 % 74 % 1014,2 hPa 0,0 l/m 1,0 km/h (0 Bft) SO 135 0 min 0,0 UV-I 16,3 C 26,3 C 0,0 km/h (0 Bft)
08.06.2013 13:15 23,1 C 21,8 C 21,5 C 25,9 C 25,9 C 2,8 C 64 % 72 % 74 % 1014,1 hPa 0,0 l/m 1,6 km/h (1 Bft) S 180 0 min 0,0 UV-I 15,9 C 25,9 C 4,2 km/h (1 Bft)
08.06.2013 13:20 23,0 C 21,8 C 21,7 C 26,1 C 26,1 C 3,1 C 65 % 72 % 82 % 1014,1 hPa 0,0 l/m 1,9 km/h (1 Bft) NW 315 0 min 0,0 UV-I 16,1 C 26,1 C 4,2 km/h (1 Bft)
08.06.2013 13:25 23,3 C 21,9 C 21,9 C 27,0 C 27,0 C 3,7 C 65 % 73 % 97 % 1014,1 hPa 0,0 l/m 1,8 km/h (1 Bft) N-NW 337 5 min 0,0 UV-I 16,3 C 27,0 C 2,1 km/h (1 Bft)
08.06.2013 13:30 23,7 C 21,9 C 21,9 C 27,9 C 27,9 C 4,2 C 64 % 70 % 100 % 1014,1 hPa 0,0 l/m 1,8 km/h (1 Bft) O 90 5 min 0,0 UV-I 16,5 C 27,9 C 1,9 km/h (1 Bft)
08.06.2013 13:35 23,7 C 21,9 C 22,0 C 27,5 C 27,5 C 3,8 C 65 % 72 % 100 % 1014,1 hPa 0,0 l/m 1,3 km/h (1 Bft) NW 315 5 min 0,0 UV-I 16,7 C 27,5 C 0,0 km/h (0 Bft)
08.06.2013 13:40 23,8 C 21,9 C 22,4 C 28,9 C 28,9 C 5,1 C 63 % 72 % 100 % 1014,1 hPa 0,0 l/m 1,9 km/h (1 Bft) N-NW 337 5 min 0,0 UV-I 16,3 C 28,9 C 7,4 km/h (2 Bft)
08.06.2013 13:45 23,6 C 22,0 C 22,4 C 28,5 C 28,5 C 4,9 C 64 % 70 % 100 % 1014,1 hPa 0,0 l/m 2,4 km/h (1 Bft) O 90 5 min 0,0 UV-I 16,4 C 28,5 C 3,2 km/h (1 Bft)
08.06.2013 13:50 23,5 C 22,0 C 22,5 C 27,9 C 27,9 C 4,4 C 65 % 72 % 100 % 1014,1 hPa 0,0 l/m 2,9 km/h (1 Bft) SO 135 5 min 0,0 UV-I 16,5 C 27,9 C 2,7 km/h (1 Bft)
08.06.2013 13:55 23,9 C 22,0 C 22,7 C 29,0 C 29,0 C 5,1 C 64 % 68 % 100 % 1014,1 hPa 0,0 l/m 2,4 km/h (1 Bft) W-SW 247 5 min 0,0 UV-I 16,7 C 29,0 C 0,0 km/h (0 Bft)
08.06.2013 14:00 24,1 C 21,9 C 23,1 C 29,8 C 29,8 C 5,7 C 64 % 71 % 100 % 1014,1 hPa 0,0 l/m 2,7 km/h (1 Bft) O-SO 112 5 min 0,0 UV-I 16,9 C 29,8 C 7,1 km/h (2 Bft)
08.06.2013 14:05 24,1 C 21,9 C 23,1 C 29,8 C 29,8 C 5,7 C 62 % 66 % 100 % 1014,1 hPa 0,0 l/m 3,5 km/h (1 Bft) O-SO 112 5 min 0,0 UV-I 16,4 C 29,8 C 4,8 km/h (1 Bft)
08.06.2013 14:10 23,9 C 21,9 C 23,1 C 29,8 C 29,8 C 5,9 C 63 % 68 % 100 % 1014,1 hPa 0,0 l/m 4,3 km/h (1 Bft) O-NO 67 5 min 0,0 UV-I 16,4 C 29,8 C 9,3 km/h (2 Bft)
08.06.2013 14:15 23,7 C 22,0 C 23,0 C 29,4 C 29,4 C 5,7 C 63 % 67 % 100 % 1013,8 hPa 0,0 l/m 4,5 km/h (1 Bft) O 90 5 min 0,0 UV-I 16,2 C 29,4 C 10,1 km/h (2 Bft)
08.06.2013 14:20 23,5 C 22,0 C 22,7 C 28,3 C 28,3 C 4,8 C 62 % 66 % 100 % 1013,8 hPa 0,0 l/m 6,0 km/h (2 Bft) O-NO 67 5 min 0,0 UV-I 15,8 C 28,3 C 10,5 km/h (2 Bft)
08.06.2013 14:25 23,4 C 22,0 C 22,7 C 27,8 C 27,8 C 4,4 C 63 % 66 % 100 % 1013,8 hPa 0,0 l/m 6,1 km/h (2 Bft) O-NO 67 5 min 0,0 UV-I 15,9 C 27,8 C 3,4 km/h (1 Bft)
08.06.2013 14:30 23,5 C 22,0 C 22,7 C 27,6 C 27,6 C 4,1 C 64 % 69 % 100 % 1013,8 hPa 0,0 l/m 3,2 km/h (1 Bft) O-NO 67 5 min 0,0 UV-I 16,3 C 27,6 C 3,4 km/h (1 Bft)
08.06.2013 14:35 23,5 C 22,1 C 22,6 C 27,4 C 27,4 C 3,9 C 63 % 69 % 100 % 1013,4 hPa 0,0 l/m 1,9 km/h (1 Bft) S 180 5 min 0,0 UV-I 16,0 C 27,4 C 2,9 km/h (1 Bft)
08.06.2013 14:40 23,7 C 22,1 C 22,8 C 27,8 C 27,8 C 4,1 C 63 % 70 % 100 % 1013,4 hPa 0,0 l/m 2,9 km/h (1 Bft) N-NW 337 5 min 0,0 UV-I 16,2 C 27,8 C 5,1 km/h (1 Bft)
08.06.2013 14:45 23,9 C 22,1 C 22,7 C 27,7 C 27,7 C 3,8 C 63 % 67 % 100 % 1013,4 hPa 0,0 l/m 3,1 km/h (1 Bft) NO 45 5 min 0,0 UV-I 16,4 C 27,7 C 1,8 km/h (1 Bft)
08.06.2013 14:50 23,6 C 22,1 C 22,6 C 27,4 C 27,4 C 3,8 C 64 % 68 % 100 % 1013,4 hPa 0,0 l/m 2,1 km/h (1 Bft) O-SO 112 5 min 0,0 UV-I 16,4 C 27,4 C 0,0 km/h (0 Bft)
08.06.2013 14:55 23,6 C 22,1 C 22,7 C 27,4 C 27,4 C 3,8 C 65 % 70 % 100 % 1013,3 hPa 0,0 l/m 1,3 km/h (1 Bft) O-SO 112 5 min 0,0 UV-I 16,6 C 27,4 C 1,9 km/h (1 Bft)
08.06.2013 15:00 23,9 C 22,1 C 22,7 C 28,1 C 28,1 C 4,2 C 64 % 67 % 100 % 1013,3 hPa 0,0 l/m 1,3 km/h (1 Bft) O-SO 112 5 min 0,0 UV-I 16,7 C 28,1 C 3,1 km/h (1 Bft)
08.06.2013 15:05 23,7 C 22,2 C 22,8 C 28,0 C 28,0 C 4,3 C 63 % 67 % 100 % 1013,3 hPa 0,0 l/m 2,1 km/h (1 Bft) S-SO 157 5 min 0,0 UV-I 16,2 C 28,0 C 2,1 km/h (1 Bft)
08.06.2013 15:10 23,6 C 22,2 C 22,9 C 27,9 C 27,9 C 4,3 C 65 % 71 % 100 % 1013,3 hPa 0,0 l/m 3,5 km/h (1 Bft) O-NO 67 5 min 0,0 UV-I 16,6 C 27,9 C 6,1 km/h (2 Bft)
08.06.2013 15:15 23,3 C 22,2 C 22,8 C 27,4 C 27,4 C 4,1 C 67 % 72 % 100 % 1013,2 hPa 0,0 l/m 3,7 km/h (1 Bft) NO 45 5 min 0,0 UV-I 16,8 C 27,4 C 3,4 km/h (1 Bft)
08.06.2013 15:20 23,3 C 22,2 C 22,4 C 26,5 C 26,5 C 3,2 C 68 % 73 % 84 % 1013,2 hPa 0,0 l/m 2,6 km/h (1 Bft) O-NO 67 0 min 0,0 UV-I 17,1 C 26,5 C 7,6 km/h (2 Bft)
08.06.2013 15:25 23,0 C 22,3 C 22,3 C 25,7 C 25,7 C 2,7 C 67 % 73 % 71 % 1013,2 hPa 0,0 l/m 2,1 km/h (1 Bft) O-NO 67 0 min 0,0 UV-I 16,5 C 25,7 C 0,0 km/h (0 Bft)
08.06.2013 15:30 22,7 C 22,3 C 21,9 C 24,9 C 24,9 C 2,2 C 69 % 74 % 58 % 1013,2 hPa 0,0 l/m 3,4 km/h (1 Bft) O 90 0 min 0,0 UV-I 16,7 C 24,9 C 5,8 km/h (2 Bft)
08.06.2013 15:35 22,5 C 22,3 C 21,6 C 24,1 C 24,1 C 1,6 C 70 % 75 % 42 % 1013,2 hPa 0,0 l/m 2,4 km/h (1 Bft) O-SO 112 0 min 0,0 UV-I 16,7 C 24,1 C 2,1 km/h (1 Bft)
08.06.2013 15:40 22,3 C 22,3 C 21,4 C 23,5 C 23,5 C 1,2 C 70 % 76 % 32 % 1013,2 hPa 0,0 l/m 1,4 km/h (1 Bft) NO 45 0 min 0,0 UV-I 16,6 C 23,5 C 0,0 km/h (0 Bft)
08.06.2013 15:45 22,3 C 22,3 C 21,3 C 23,2 C 23,2 C 0,9 C 70 % 74 % 24 % 1013,2 hPa 0,0 l/m 0,8 km/h (0 Bft) O-NO 67 0 min 0,0 UV-I 16,6 C 23,2 C 0,0 km/h (0 Bft)
08.06.2013 15:50 21,9 C 22,3 C 21,0 C 22,3 C 22,3 C 0,4 C 71 % 77 % 11 % 1013,2 hPa 0,0 l/m 0,8 km/h (0 Bft) NO 45 0 min 0,0 UV-I 16,4 C 22,3 C 3,4 km/h (1 Bft)
08.06.2013 15:55 21,7 C 22,3 C 20,6 C 21,6 C 21,4 C 0,0 C 71 % 77 % 0 % 1013,1 hPa 0,0 l/m 0,8 km/h (0 Bft) NO 45 0 min 0,0 UV-I 16,2 C 21,4 C 1,8 km/h (1 Bft)
08.06.2013 16:00 21,4 C 22,4 C 20,3 C 21,1 C 20,4 C 0,0 C 73 % 78 % 0 % 1013,1 hPa 0,0 l/m 0,5 km/h (0 Bft) O 90 0 min 0,0 UV-I 16,4 C 20,4 C 0,0 km/h (0 Bft)
08.06.2013 16:05 21,1 C 22,4 C 19,9 C 20,7 C 19,9 C 0,0 C 74 % 79 % 0 % 1013,1 hPa 0,0 l/m 0,2 km/h (0 Bft) N-NO 22 0 min 0,0 UV-I 16,3 C 19,9 C 2,3 km/h (1 Bft)
08.06.2013 16:10 20,5 C 22,6 C 19,1 C 19,9 C 18,7 C 0,0 C 75 % 80 % 0 % 1013,1 hPa 0,7 l/m 1,3 km/h (1 Bft) NW 315 0 min 0,0 UV-I 15,9 C 18,7 C 3,1 km/h (1 Bft)
08.06.2013 16:15 20,3 C 22,8 C 18,7 C 19,6 C 18,2 C 0,0 C 76 % 81 % 0 % 1013,1 hPa 0,0 l/m 1,4 km/h (1 Bft) O 90 0 min 0,0 UV-I 15,9 C 18,2 C 0,0 km/h (0 Bft)
08.06.2013 16:20 19,9 C 22,8 C 18,6 C 19,2 C 17,8 C 0,0 C 79 % 82 % 0 % 1013,1 hPa 0,0 l/m 2,7 km/h (1 Bft) O 90 0 min 0,0 UV-I 16,1 C 17,8 C 10,6 km/h (2 Bft)
08.06.2013 16:25 19,7 C 23,0 C 18,5 C 19,0 C 17,7 C 0,0 C 80 % 82 % 0 % 1013,1 hPa 0,0 l/m 4,5 km/h (1 Bft) O 90 0 min 0,0 UV-I 16,1 C 17,7 C 10,0 km/h (2 Bft)
08.06.2013 16:30 19,3 C 23,0 C 18,2 C 18,7 C 17,5 C 0,0 C 81 % 82 % 0 % 1013,1 hPa 0,0 l/m 5,0 km/h (1 Bft) NW 315 0 min 0,0 UV-I 16,0 C 17,5 C 3,4 km/h (1 Bft)
08.06.2013 16:35 19,0 C 23,0 C 18,0 C 18,5 C 17,5 C 0,0 C 81 % 82 % 0 % 1013,2 hPa 0,0 l/m 4,2 km/h (1 Bft) N-NW 337 0 min 0,0 UV-I 15,7 C 17,5 C 5,3 km/h (1 Bft)
08.06.2013 16:40 18,5 C 23,0 C 17,3 C 18,0 C 16,9 C 0,0 C 82 % 83 % 0 % 1013,2 hPa 0,0 l/m 3,9 km/h (1 Bft) W-SW 247 0 min 0,0 UV-I 15,4 C 16,9 C 4,3 km/h (1 Bft)
08.06.2013 16:45 18,1 C 23,0 C 17,2 C 17,6 C 16,7 C 0,0 C 83 % 82 % 0 % 1013,2 hPa 0,0 l/m 3,4 km/h (1 Bft) NW 315 0 min 0,0 UV-I 15,2 C 16,7 C 3,5 km/h (1 Bft)
08.06.2013 16:50 17,9 C 23,0 C 17,1 C 17,5 C 16,6 C 0,0 C 83 % 82 % 0 % 1013,2 hPa 0,0 l/m 1,8 km/h (1 Bft) S-SW 202 0 min 0,0 UV-I 15,0 C 16,6 C 0,0 km/h (0 Bft)
08.06.2013 16:55 17,7 C 23,0 C 17,2 C 17,3 C 16,6 C 0,0 C 83 % 83 % 0 % 1013,7 hPa 0,0 l/m 1,4 km/h (1 Bft) SW 225 0 min 0,0 UV-I 14,8 C 16,6 C 2,7 km/h (1 Bft)
08.06.2013 17:00 17,5 C 23,0 C 17,1 C 17,2 C 16,5 C 0,0 C 83 % 83 % 0 % 1013,7 hPa 0,0 l/m 1,1 km/h (1 Bft) SW 225 0 min 0,0 UV-I 14,6 C 16,5 C 2,9 km/h (1 Bft)
08.06.2013 17:05 17,2 C 23,0 C 17,0 C 16,9 C 16,4 C 0,0 C 83 % 83 % 0 % 1013,7 hPa 0,0 l/m 1,1 km/h (1 Bft) O-SO 112 0 min 0,0 UV-I 14,3 C 16,4 C 0,0 km/h (0 Bft)
08.06.2013 17:10 16,8 C 23,0 C 16,8 C 16,6 C 16,3 C 0,0 C 84 % 84 % 0 % 1013,7 hPa 0,0 l/m 1,1 km/h (1 Bft) S-SO 157 0 min 0,0 UV-I 14,1 C 16,3 C 0,0 km/h (0 Bft)
08.06.2013 17:15 16,7 C 23,0 C 16,9 C 16,6 C 16,3 C 0,0 C 84 % 84 % 0 % 1013,5 hPa 0,7 l/m 0,5 km/h (0 Bft) N-NW 337 0 min 0,0 UV-I 14,0 C 16,3 C 0,0 km/h (0 Bft)
08.06.2013 17:20 16,4 C 23,0 C 16,8 C 16,4 C 16,3 C 0,0 C 85 % 84 % 0 % 1013,5 hPa 0,0 l/m 0,2 km/h (0 Bft) NO 45 0 min 0,0 UV-I 13,9 C 16,3 C 0,0 km/h (0 Bft)
08.06.2013 17:25 16,4 C 23,0 C 16,7 C 16,4 C 16,3 C 0,0 C 85 % 84 % 0 % 1013,5 hPa 0,7 l/m 0,2 km/h (0 Bft) O 90 0 min 0,0 UV-I 13,9 C 16,3 C 0,0 km/h (0 Bft)
08.06.2013 17:30 16,3 C 23,0 C 16,6 C 16,3 C 16,3 C 0,0 C 85 % 85 % 0 % 1013,5 hPa 0,0 l/m 0,2 km/h (0 Bft) W 270 0 min 0,0 UV-I 13,8 C 16,3 C 1,6 km/h (1 Bft)
08.06.2013 17:35 16,1 C 23,1 C 16,7 C 16,3 C 16,3 C 0,2 C 85 % 85 % 5 % 1012,9 hPa 0,0 l/m 0,2 km/h (0 Bft) W-SW 247 0 min 0,0 UV-I 13,6 C 16,3 C 0,0 km/h (0 Bft)
08.06.2013 17:40 16,0 C 23,1 C 16,5 C 16,3 C 16,3 C 0,3 C 85 % 85 % 8 % 1012,9 hPa 0,0 l/m 0,2 km/h (0 Bft) SO 135 0 min 0,0 UV-I 13,5 C 16,3 C 0,0 km/h (0 Bft)
08.06.2013 17:45 15,9 C 23,1 C 16,5 C 16,2 C 16,2 C 0,3 C 86 % 85 % 8 % 1012,9 hPa 0,0 l/m 0,0 km/h (0 Bft) O-NO 67 0 min 0,0 UV-I 13,6 C 16,2 C 0,0 km/h (0 Bft)
08.06.2013 17:50 15,9 C 23,1 C 16,4 C 16,2 C 16,2 C 0,3 C 86 % 85 % 8 % 1012,9 hPa 0,0 l/m 0,0 km/h (0 Bft) N-NW 337 0 min 0,0 UV-I 13,6 C 16,2 C 0,0 km/h (0 Bft)
08.06.2013 17:55 15,9 C 23,1 C 16,5 C 16,3 C 16,3 C 0,4 C 86 % 85 % 11 % 1012,6 hPa 0,0 l/m 0,0 km/h (0 Bft) SW 225 0 min 0,0 UV-I 13,6 C 16,3 C 0,0 km/h (0 Bft)
08.06.2013 18:00 15,8 C 23,1 C 16,5 C 16,3 C 16,3 C 0,5 C 87 % 86 % 13 % 1012,6 hPa 0,7 l/m 0,0 km/h (0 Bft) W-SW 247 0 min 0,0 UV-I 13,6 C 16,3 C 1,6 km/h (1 Bft)
08.06.2013 18:05 15,9 C 23,1 C 16,5 C 16,3 C 16,3 C 0,4 C 87 % 86 % 11 % 1012,6 hPa 0,0 l/m 0,3 km/h (0 Bft) S-SW 202 0 min 0,0 UV-I 13,7 C 16,3 C 0,0 km/h (0 Bft)
08.06.2013 18:10 15,8 C 23,1 C 16,4 C 16,2 C 16,2 C 0,4 C 87 % 86 % 11 % 1012,6 hPa 0,0 l/m 0,3 km/h (0 Bft) NO 45 0 min 0,0 UV-I 13,6 C 16,2 C 0,0 km/h (0 Bft)
08.06.2013 18:15 15,7 C 23,1 C 16,5 C 16,2 C 16,2 C 0,5 C 87 % 86 % 13 % 1012,7 hPa 0,0 l/m 0,0 km/h (0 Bft) NO 45 0 min 0,0 UV-I 13,5 C 16,2 C 0,0 km/h (0 Bft)
08.06.2013 18:20 15,7 C 23,1 C 16,5 C 16,3 C 16,3 C 0,6 C 87 % 86 % 16 % 1012,7 hPa 0,0 l/m 0,3 km/h (0 Bft) O-SO 112 0 min 0,0 UV-I 13,5 C 16,3 C 1,9 km/h (1 Bft)
08.06.2013 18:25 15,6 C 23,1 C 16,4 C 16,2 C 16,2 C 0,6 C 87 % 86 % 16 % 1012,7 hPa 0,0 l/m 0,3 km/h (0 Bft) SO 135 0 min 0,0 UV-I 13,4 C 16,2 C 0,0 km/h (0 Bft)
08.06.2013 18:30 15,5 C 23,1 C 16,2 C 16,1 C 16,1 C 0,6 C 87 % 86 % 16 % 1012,7 hPa 0,0 l/m 0,0 km/h (0 Bft) O-SO 112 0 min 0,0 UV-I 13,3 C 16,1 C 0,0 km/h (0 Bft)
08.06.2013 18:35 15,5 C 23,1 C 16,2 C 16,0 C 16,0 C 0,5 C 87 % 86 % 13 % 1012,5 hPa 0,0 l/m 0,0 km/h (0 Bft) N-NW 337 0 min 0,0 UV-I 13,3 C 16,0 C 0,0 km/h (0 Bft)
08.06.2013 18:41 15,5 C 23,0 C 16,2 C 16,0 C 16,0 C 0,5 C 88 % 87 % 13 % 1012,5 hPa 0,0 l/m 0,0 km/h (0 Bft) N 0 0 min 0,0 UV-I 13,5 C 16,0 C 1,6 km/h (1 Bft)
08.06.2013 19:00 15,2 C 23,0 C 16,1 C 15,7 C 15,7 C 0,5 C 88 % 87 % 13 % 1012,4 hPa 0,0 l/m 0,0 km/h (0 Bft) O-NO 67 0 min 0,0 UV-I 13,2 C 15,7 C 0,0 km/h (0 Bft)
08.06.2013 19:05 15,2 C 23,0 C 16,0 C 15,8 C 15,8 C 0,6 C 88 % 87 % 16 % 1012,4 hPa 0,0 l/m 0,0 km/h (0 Bft) N-NO 22 0 min 0,0 UV-I 13,2 C 15,8 C 0,0 km/h (0 Bft)
08.06.2013 19:10 15,2 C 23,0 C 15,9 C 15,8 C 15,8 C 0,6 C 88 % 87 % 16 % 1012,4 hPa 0,0 l/m 0,0 km/h (0 Bft) O-NO 67 0 min 0,0 UV-I 13,2 C 15,8 C 0,0 km/h (0 Bft)
08.06.2013 19:15 15,2 C 23,0 C 15,9 C 15,8 C 15,8 C 0,6 C 88 % 87 % 16 % 1012,1 hPa 0,0 l/m 0,0 km/h (0 Bft) N 360 0 min 0,0 UV-I 13,2 C 15,8 C 0,0 km/h (0 Bft)
08.06.2013 19:20 15,2 C 23,0 C 16,0 C 15,7 C 15,7 C 0,5 C 88 % 87 % 13 % 1012,1 hPa 0,0 l/m 0,0 km/h (0 Bft) O-NO 67 0 min 0,0 UV-I 13,2 C 15,7 C 0,0 km/h (0 Bft)
08.06.2013 19:25 15,1 C 23,0 C 16,0 C 15,8 C 15,8 C 0,7 C 89 % 87 % 18 % 1012,1 hPa 0,0 l/m 0,0 km/h (0 Bft) O-SO 112 0 min 0,0 UV-I 13,3 C 15,8 C 0,0 km/h (0 Bft)
08.06.2013 19:30 15,1 C 23,0 C 16,0 C 15,8 C 15,8 C 0,7 C 89 % 87 % 18 % 1012,1 hPa 0,0 l/m 0,0 km/h (0 Bft) O-SO 112 0 min 0,0 UV-I 13,3 C 15,8 C 0,0 km/h (0 Bft)
08.06.2013 19:35 15,0 C 23,0 C 16,1 C 15,8 C 15,8 C 0,8 C 89 % 87 % 21 % 1012,1 hPa 0,0 l/m 0,0 km/h (0 Bft) O-SO 112 0 min 0,0 UV-I 13,2 C 15,8 C 0,0 km/h (0 Bft)
08.06.2013 19:40 15,0 C 23,0 C 16,0 C 15,8 C 15,8 C 0,8 C 89 % 87 % 21 % 1012,1 hPa 0,0 l/m 0,0 km/h (0 Bft) O-NO 67 0 min 0,0 UV-I 13,2 C 15,8 C 0,0 km/h (0 Bft)
08.06.2013 19:45 15,1 C 23,0 C 16,0 C 15,9 C 15,9 C 0,8 C 89 % 87 % 21 % 1012,1 hPa 0,7 l/m 0,2 km/h (0 Bft) O-NO 67 0 min 0,0 UV-I 13,3 C 15,9 C 1,9 km/h (1 Bft)
08.06.2013 19:50 15,1 C 23,0 C 16,0 C 15,9 C 15,9 C 0,8 C 89 % 88 % 21 % 1012,1 hPa 0,0 l/m 0,5 km/h (0 Bft) O 90 0 min 0,0 UV-I 13,3 C 15,9 C 2,1 km/h (1 Bft)
08.06.2013 19:55 15,2 C 23,0 C 16,1 C 16,0 C 16,0 C 0,8 C 89 % 88 % 21 % 1011,6 hPa 0,0 l/m 0,5 km/h (0 Bft) NO 45 0 min 0,0 UV-I 13,4 C 16,0 C 0,0 km/h (0 Bft)
08.06.2013 20:00 15,2 C 23,0 C 16,1 C 16,3 C 16,3 C 1,1 C 90 % 88 % 29 % 1011,6 hPa 0,0 l/m 1,1 km/h (1 Bft) N-NW 337 0 min 0,0 UV-I 13,6 C 16,3 C 2,4 km/h (1 Bft)
08.06.2013 20:05 15,2 C 23,0 C 16,1 C 16,3 C 16,3 C 1,1 C 90 % 88 % 29 % 1011,6 hPa 0,0 l/m 1,6 km/h (1 Bft) N-NW 337 0 min 0,0 UV-I 13,6 C 16,3 C 1,6 km/h (1 Bft)
08.06.2013 20:10 15,3 C 23,0 C 16,3 C 16,3 C 16,3 C 1,0 C 90 % 88 % 26 % 1011,6 hPa 0,0 l/m 1,1 km/h (1 Bft) O 90 0 min 0,0 UV-I 13,7 C 16,3 C 0,0 km/h (0 Bft)
08.06.2013 20:15 15,3 C 23,0 C 16,3 C 16,4 C 16,4 C 1,1 C 90 % 88 % 29 % 1011,7 hPa 0,0 l/m 0,0 km/h (0 Bft) NO 45 0 min 0,0 UV-I 13,7 C 16,4 C 0,0 km/h (0 Bft)
08.06.2013 20:20 15,5 C 23,0 C 16,2 C 16,4 C 16,4 C 0,9 C 90 % 88 % 24 % 1011,7 hPa 0,0 l/m 0,6 km/h (0 Bft) N-NW 337 0 min 0,0 UV-I 13,9 C 16,4 C 0,0 km/h (0 Bft)
08.06.2013 20:25 15,5 C 23,0 C 16,3 C 16,4 C 16,4 C 0,9 C 90 % 88 % 24 % 1011,7 hPa 0,0 l/m 0,6 km/h (0 Bft) O-SO 112 0 min 0,0 UV-I 13,9 C 16,4 C 0,0 km/h (0 Bft)
08.06.2013 20:30 15,5 C 23,0 C 16,3 C 16,3 C 16,3 C 0,8 C 90 % 88 % 21 % 1011,7 hPa 0,0 l/m 0,0 km/h (0 Bft) O 90 0 min 0,0 UV-I 13,9 C 16,3 C 0,0 km/h (0 Bft)
08.06.2013 20:35 15,5 C 23,0 C 16,3 C 16,3 C 16,3 C 0,8 C 90 % 88 % 21 % 1011,6 hPa 0,7 l/m 0,0 km/h (0 Bft) SO 135 0 min 0,0 UV-I 13,9 C 16,3 C 0,0 km/h (0 Bft)
08.06.2013 20:40 15,4 C 23,0 C 16,2 C 16,1 C 16,1 C 0,7 C 90 % 88 % 18 % 1011,6 hPa 0,0 l/m 0,0 km/h (0 Bft) SW 225 0 min 0,0 UV-I 13,8 C 16,1 C 0,0 km/h (0 Bft)
08.06.2013 20:45 15,3 C 23,0 C 16,3 C 16,0 C 16,0 C 0,7 C 90 % 88 % 18 % 1011,6 hPa 0,0 l/m 0,0 km/h (0 Bft) O-NO 67 5 min 0,0 UV-I 13,7 C 16,0 C 0,0 km/h (0 Bft)
08.06.2013 20:50 15,3 C 23,0 C 16,1 C 15,9 C 15,9 C 0,6 C 90 % 88 % 16 % 1011,6 hPa 0,0 l/m 0,0 km/h (0 Bft) NW 315 5 min 0,0 UV-I 13,7 C 15,9 C 0,0 km/h (0 Bft)
08.06.2013 20:55 15,3 C 23,0 C 16,1 C 15,8 C 15,8 C 0,5 C 90 % 88 % 13 % 1011,4 hPa 0,0 l/m 0,0 km/h (0 Bft) W-SW 247 5 min 0,0 UV-I 13,7 C 15,8 C 0,0 km/h (0 Bft)
08.06.2013 21:00 15,2 C 22,9 C 16,1 C 15,6 C 15,6 C 0,4 C 90 % 88 % 11 % 1011,4 hPa 0,0 l/m 0,2 km/h (0 Bft) W-SW 247 5 min 0,0 UV-I 13,6 C 15,6 C 0,0 km/h (0 Bft)
08.06.2013 21:05 15,3 C 22,9 C 16,0 C 15,6 C 15,6 C 0,3 C 90 % 88 % 8 % 1011,4 hPa 0,0 l/m 0,2 km/h (0 Bft) O-SO 112 5 min 0,0 UV-I 13,7 C 15,6 C 0,0 km/h (0 Bft)
08.06.2013 21:10 15,1 C 22,9 C 16,0 C 15,4 C 15,4 C 0,3 C 90 % 88 % 0 % 1011,4 hPa 0,0 l/m 0,0 km/h (0 Bft) N-NW 337 0 min 0,0 UV-I 13,5 C 15,4 C 0,0 km/h (0 Bft)
08.06.2013 21:15 15,0 C 22,9 C 15,9 C 15,3 C 15,3 C 0,3 C 90 % 88 % 0 % 1011,4 hPa 0,0 l/m 0,0 km/h (0 Bft) NW 315 0 min 0,0 UV-I 13,4 C 15,3 C 0,0 km/h (0 Bft)
08.06.2013 21:20 14,9 C 22,9 C 15,8 C 15,2 C 15,2 C 0,3 C 90 % 88 % 0 % 1011,4 hPa 0,0 l/m 0,0 km/h (0 Bft) O-SO 112 0 min 0,0 UV-I 13,3 C 15,2 C 0,0 km/h (0 Bft)
08.06.2013 21:25 14,9 C 22,9 C 15,7 C 15,2 C 15,2 C 0,3 C 89 % 88 % 0 % 1011,4 hPa 0,0 l/m 0,0 km/h (0 Bft) O 90 0 min 0,0 UV-I 13,1 C 15,2 C 0,0 km/h (0 Bft)
08.06.2013 21:30 14,8 C 22,9 C 15,7 C 15,2 C 15,2 C 0,4 C 90 % 88 % 0 % 1011,4 hPa 0,0 l/m 0,0 km/h (0 Bft) SW 225 0 min 0,0 UV-I 13,2 C 15,2 C 0,0 km/h (0 Bft)
08.06.2013 21:35 14,8 C 22,9 C 15,9 C 15,2 C 15,2 C 0,4 C 90 % 88 % 0 % 1011,5 hPa 0,0 l/m 0,0 km/h (0 Bft) S 180 0 min 0,0 UV-I 13,2 C 15,2 C 0,0 km/h (0 Bft)
08.06.2013 21:40 14,8 C 22,9 C 15,7 C 15,2 C 15,2 C 0,4 C 90 % 88 % 0 % 1011,5 hPa 0,0 l/m 0,0 km/h (0 Bft) W 270 0 min 0,0 UV-I 13,2 C 15,2 C 0,0 km/h (0 Bft)
08.06.2013 21:45 14,8 C 22,9 C 15,7 C 15,3 C 15,3 C 0,5 C 90 % 88 % 0 % 1011,5 hPa 0,0 l/m 0,0 km/h (0 Bft) W-SW 247 0 min 0,0 UV-I 13,2 C 15,3 C 0,0 km/h (0 Bft)
08.06.2013 21:50 14,9 C 22,9 C 15,7 C 15,3 C 15,3 C 0,4 C 90 % 88 % 0 % 1011,5 hPa 0,0 l/m 0,0 km/h (0 Bft) O-SO 112 0 min 0,0 UV-I 13,3 C 15,3 C 0,0 km/h (0 Bft)
08.06.2013 21:55 14,8 C 22,9 C 15,7 C 15,2 C 15,2 C 0,4 C 90 % 88 % 0 % 1011,3 hPa 0,0 l/m 0,0 km/h (0 Bft) O 90 0 min 0,0 UV-I 13,2 C 15,2 C 0,0 km/h (0 Bft)
08.06.2013 22:00 14,8 C 22,9 C 15,7 C 15,2 C 15,2 C 0,4 C 90 % 88 % 0 % 1011,3 hPa 0,0 l/m 0,0 km/h (0 Bft) O-NO 67 0 min 0,0 UV-I 13,2 C 15,2 C 0,0 km/h (0 Bft)
08.06.2013 22:05 14,7 C 22,9 C 15,6 C 15,1 C 15,1 C 0,4 C 90 % 88 % 0 % 1011,3 hPa 0,0 l/m 0,0 km/h (0 Bft) O-NO 67 0 min 0,0 UV-I 13,1 C 15,1 C 0,0 km/h (0 Bft)
08.06.2013 22:10 14,7 C 22,9 C 15,4 C 15,1 C 15,1 C 0,4 C 90 % 88 % 0 % 1011,3 hPa 0,0 l/m 0,0 km/h (0 Bft) NW 315 0 min 0,0 UV-I 13,1 C 15,1 C 0,0 km/h (0 Bft)
08.06.2013 22:15 14,7 C 22,9 C 15,6 C 15,2 C 15,2 C 0,5 C 90 % 88 % 0 % 1011,2 hPa 0,0 l/m 0,0 km/h (0 Bft) NW 315 0 min 0,0 UV-I 13,1 C 15,2 C 0,0 km/h (0 Bft)
08.06.2013 22:20 14,7 C 22,9 C 15,6 C 15,1 C 15,1 C 0,4 C 90 % 88 % 0 % 1011,2 hPa 0,0 l/m 0,0 km/h (0 Bft) W-SW 247 0 min 0,0 UV-I 13,1 C 15,1 C 0,0 km/h (0 Bft)
08.06.2013 22:25 14,6 C 22,9 C 15,6 C 15,0 C 15,0 C 0,4 C 90 % 88 % 0 % 1011,2 hPa 0,0 l/m 0,0 km/h (0 Bft) W-SW 247 0 min 0,0 UV-I 13,0 C 15,0 C 0,0 km/h (0 Bft)
08.06.2013 22:30 14,6 C 22,9 C 15,5 C 14,9 C 14,9 C 0,3 C 90 % 88 % 0 % 1011,2 hPa 0,0 l/m 0,0 km/h (0 Bft) W 270 0 min 0,0 UV-I 13,0 C 14,9 C 0,0 km/h (0 Bft)
08.06.2013 22:35 14,5 C 22,8 C 15,5 C 14,8 C 14,8 C 0,3 C 90 % 88 % 0 % 1011,2 hPa 0,0 l/m 0,2 km/h (0 Bft) W 270 0 min 0,0 UV-I 12,9 C 14,8 C 1,6 km/h (1 Bft)
08.06.2013 22:40 14,4 C 22,8 C 15,2 C 14,6 C 14,6 C 0,2 C 90 % 88 % 0 % 1011,2 hPa 0,0 l/m 0,2 km/h (0 Bft) O 90 0 min 0,0 UV-I 12,8 C 14,6 C 0,0 km/h (0 Bft)
08.06.2013 22:45 14,3 C 22,8 C 15,2 C 14,6 C 14,6 C 0,3 C 90 % 88 % 0 % 1011,2 hPa 0,0 l/m 0,2 km/h (0 Bft) O 90 0 min 0,0 UV-I 12,7 C 14,6 C 0,0 km/h (0 Bft)
08.06.2013 22:50 14,1 C 22,8 C 15,0 C 14,4 C 14,4 C 0,3 C 90 % 88 % 0 % 1011,2 hPa 0,0 l/m 0,0 km/h (0 Bft) O-NO 67 0 min 0,0 UV-I 12,5 C 14,4 C 0,0 km/h (0 Bft)
08.06.2013 22:55 14,0 C 22,8 C 14,9 C 14,2 C 14,2 C 0,2 C 90 % 88 % 0 % 1011,2 hPa 0,0 l/m 0,0 km/h (0 Bft) SO 135 0 min 0,0 UV-I 12,4 C 14,2 C 0,0 km/h (0 Bft)
08.06.2013 23:00 14,0 C 22,8 C 14,9 C 14,1 C 14,1 C 0,1 C 90 % 88 % 0 % 1011,2 hPa 0,0 l/m 0,0 km/h (0 Bft) N-NW 337 0 min 0,0 UV-I 12,4 C 14,1 C 0,0 km/h (0 Bft)
08.06.2013 23:05 14,0 C 22,8 C 14,8 C 14,2 C 14,2 C 0,2 C 90 % 88 % 0 % 1011,2 hPa 0,0 l/m 0,0 km/h (0 Bft) NW 315 0 min 0,0 UV-I 12,4 C 14,2 C 0,0 km/h (0 Bft)
08.06.2013 23:10 13,9 C 22,8 C 14,8 C 14,3 C 14,3 C 0,4 C 90 % 88 % 0 % 1011,2 hPa 0,0 l/m 0,0 km/h (0 Bft) NW 315 0 min 0,0 UV-I 12,3 C 14,3 C 0,0 km/h (0 Bft)
08.06.2013 23:15 13,9 C 22,8 C 14,9 C 14,4 C 14,4 C 0,5 C 90 % 88 % 0 % 1011,2 hPa 0,0 l/m 0,0 km/h (0 Bft) W-NW 292 0 min 0,0 UV-I 12,3 C 14,4 C 0,0 km/h (0 Bft)
08.06.2013 23:20 14,0 C 22,8 C 14,9 C 14,4 C 14,4 C 0,4 C 90 % 89 % 0 % 1011,2 hPa 0,0 l/m 0,0 km/h (0 Bft) SW 225 0 min 0,0 UV-I 12,4 C 14,4 C 0,0 km/h (0 Bft)
08.06.2013 23:25 13,9 C 22,8 C 14,9 C 14,4 C 14,4 C 0,5 C 90 % 89 % 0 % 1011,2 hPa 0,0 l/m 0,0 km/h (0 Bft) SW 225 0 min 0,0 UV-I 12,3 C 14,4 C 0,0 km/h (0 Bft)
08.06.2013 23:30 13,8 C 22,8 C 14,8 C 14,3 C 14,3 C 0,5 C 90 % 89 % 0 % 1011,2 hPa 0,0 l/m 0,0 km/h (0 Bft) N-NO 22 0 min 0,0 UV-I 12,2 C 14,3 C 0,0 km/h (0 Bft)
08.06.2013 23:35 13,9 C 22,8 C 14,6 C 14,2 C 14,2 C 0,3 C 90 % 89 % 0 % 1011,6 hPa 0,0 l/m 0,0 km/h (0 Bft) N 360 0 min 0,0 UV-I 12,3 C 14,2 C 0,0 km/h (0 Bft)
08.06.2013 23:40 13,8 C 22,7 C 14,7 C 14,0 C 14,0 C 0,2 C 90 % 89 % 0 % 1011,6 hPa 0,0 l/m 0,0 km/h (0 Bft) W 270 0 min 0,0 UV-I 12,2 C 14,0 C 0,0 km/h (0 Bft)
08.06.2013 23:45 13,6 C 22,7 C 14,6 C 13,9 C 13,9 C 0,3 C 90 % 89 % 0 % 1011,6 hPa 0,0 l/m 0,0 km/h (0 Bft) W-SW 247 0 min 0,0 UV-I 12,0 C 13,9 C 0,0 km/h (0 Bft)
08.06.2013 23:50 13,5 C 22,8 C 14,6 C 13,8 C 13,8 C 0,3 C 90 % 89 % 0 % 1011,6 hPa 0,0 l/m 0,0 km/h (0 Bft) W-SW 247 0 min 0,0 UV-I 11,9 C 13,8 C 0,0 km/h (0 Bft)
08.06.2013 23:55 13,4 C 22,8 C 14,5 C 13,7 C 13,7 C 0,3 C 90 % 89 % 0 % 1011,2 hPa 0,0 l/m 0,0 km/h (0 Bft) W-SW 247 0 min 0,0 UV-I 11,8 C 13,7 C 0,0 km/h (0 Bft)
_ Min-Zeit 03:35 11:00 03:35 03:10 03:10 00:00 14:05 14:05 00:00 22:15 - 00:00 - - - 00:00 03:35 03:10 00:00
Minimum _ 11,8 C 21,5 C 13,1 C 12,4 C 12,4 C 0,0 C 62 % 66 % 0 % 1011,2 hPa - 0,0 km/h (0 Bft) - - - 0,0 UV-I 10,2 C 12,4 C 0,0 km/h (0 Bft)
_ Max-Zeit 14:00 17:35 14:00 12:46 12:46 08:40 07:40 23:20 07:40 00:15 16:10 14:25 - - 13:00 12:30 11:05 12:46 16:20
Maximum _ 24,1 C 23,1 C 23,1 C 30,0 C 30,0 C 9,7 C 93 % 89 % 100 % 1017,0 hPa 0,7 l/m 6,1 km/h
O-NO (2 Bft)
- - 14 min 0,1 UV-I 17,1 C 30,0 C 10,6 km/h
O (2 Bft)
Durchschnitt _ 16,6 C 22,4 C 16,8 C 18,9 C 18,9 C 2,4 C 84 % 83 % 38 % 1014,4 hPa #4,1 l/m 0,7 km/h (0 Bft) O-NO - #8:25 h 0,1 UV-I 13,7 C 18,9 C 1,1 km/h (1 Bft)
2013 www.wetterstation-wechselburg.de